ButlerWeather Station
Hourly Leaf Wetness Data

Source: University of Missouri

To the bottom of the page

Year Month Day Hour Leaf Wetness Total
Precipitation
Avg. Temp Avg. Rel.
Humidity
Wind
Speed
CST mV in mm F C % mph
2024 04 19 1:00 262.7 0.0 0.00 45.7 7.6 83.1 n/a
2024 04 19 2:00 259.3 0.0 0.00 45.1 7.3 74.56 n/a
2024 04 19 3:00 258.8 0.0 0.00 43.5 6.4 69.09 n/a
2024 04 19 4:00 258.8 0.0 0.00 41.9 5.5 69.29 n/a
2024 04 19 5:00 258.8 0.0 0.00 40.7 4.8 70.21 n/a
2024 04 19 6:00 258.4 0.0 0.00 40.5 4.7 67.87 n/a
2024 04 19 7:00 257.5 0.0 0.00 41.3 5.2 63.36 n/a
2024 04 19 8:00 254.9 0.0 0.00 45.1 7.3 50.14 n/a
2024 04 19 9:00 253.9 0.0 0.00 48.1 8.9 43.92 n/a
2024 04 19 10:00 253.3 0.0 0.00 50.8 10.4 42.33 n/a
2024 04 19 11:00 252.7 0.0 0.00 53.5 12.0 33.19 n/a
2024 04 19 12:00 252.6 0.0 0.00 55.5 13.1 30.27 n/a
2024 04 19 13:00 252.6 0.0 0.00 57.1 13.9 30.03 n/a
2024 04 19 14:00 252.6 0.0 0.00 58.4 14.7 26.88 n/a
2024 04 19 15:00 253.1 0.0 0.00 59.6 15.3 24.87 n/a
2024 04 19 16:00 253.3 0.0 0.00 60.0 15.6 23.39 n/a
2024 04 19 17:00 252.9 0.0 0.00 60.2 15.7 21.39 n/a
2024 04 19 18:00 253.2 0.0 0.00 58.7 14.8 24.87 n/a
2024 04 19 19:00 253.7 0.0 0.00 56.8 13.8 28.27 n/a
2024 04 19 20:00 253.9 0.0 0.00 55.2 12.9 32.7 n/a
2024 04 19 21:00 254.0 0.0 0.00 54.2 12.3 35.79 n/a
2024 04 19 22:00 254.6 0.0 0.00 53.1 11.7 39.2 n/a
2024 04 19 23:00 254.6 0.0 0.00 52.3 11.3 41.84 n/a
2024 04 19 24:00 255.2 0.0 0.00 51.5 10.8 45.4 n/a
2024 04 20 1:00 255.3 0.0 0.00 50.9 10.5 47.45 n/a
2024 04 20 2:00 255.3 0.0 0.00 50.5 10.3 47.87 n/a
2024 04 20 3:00 255.3 0.0 0.00 49.2 9.6 41.42 n/a
2024 04 20 4:00 255.6 0.0 0.00 45.9 7.7 48.59 n/a
2024 04 20 5:00 255.7 0.0 0.00 44.6 7.0 50.45 n/a
2024 04 20 6:00 255.4 0.0 0.00 44.8 7.1 41.72 n/a
2024 04 20 7:00 255.3 0.0 0.00 44.3 6.8 42.69 n/a
2024 04 20 8:00 254.0 0.0 0.00 45.2 7.3 41.74 n/a
2024 04 20 9:00 253.6 0.0 0.00 46.4 8.0 36.6 n/a
2024 04 20 10:00 253.3 0.0 0.00 47.2 8.5 34.58 n/a
2024 04 20 11:00 252.5 0.0 0.00 49.3 9.6 33.2 n/a
2024 04 20 12:00 252.2 0.0 0.00 50.9 10.5 33.57 n/a
2024 04 20 13:00 252.6 0.0 0.00 51.9 11.1 33.08 n/a
2024 04 20 14:00 252.7 0.0 0.00 54.0 12.2 32.02 n/a
2024 04 20 15:00 252.9 0.0 0.00 54.6 12.5 30.44 n/a
2024 04 20 16:00 253.1 0.0 0.00 54.8 12.7 29.83 n/a
2024 04 20 17:00 253.4 0.0 0.00 53.5 12.0 31.52 n/a
2024 04 20 18:00 253.9 0.0 0.00 52.3 11.3 34.01 n/a
2024 04 20 19:00 254.1 0.0 0.00 50.7 10.4 35.86 n/a
2024 04 20 20:00 254.6 0.0 0.00 49.2 9.6 36.37 n/a
2024 04 20 21:00 254.7 0.0 0.00 48.3 9.1 37.53 n/a
2024 04 20 22:00 254.7 0.0 0.00 47.9 8.8 37.43 n/a
2024 04 20 23:00 254.7 0.0 0.00 47.1 8.4 41.94 n/a
2024 04 20 24:00 255.2 0.0 0.00 46.5 8.1 43.68 n/a
2024 04 21 1:00 255.4 0.0 0.00 45.8 7.7 47.24 n/a
2024 04 21 2:00 255.9 0.0 0.00 44.9 7.2 51.8 n/a
2024 04 21 3:00 256.1 0.0 0.00 43.9 6.6 56.92 n/a
2024 04 21 4:00 256.1 0.0 0.00 43.5 6.4 54.66 n/a
2024 04 21 5:00 256.6 0.0 0.00 42.2 5.7 53.94 n/a
2024 04 21 6:00 257.2 0.0 0.00 39.8 4.3 58.03 n/a
2024 04 21 7:00 255.7 0.0 0.00 40.4 4.6 58.59 n/a
2024 04 21 8:00 253.7 0.0 0.00 45.4 7.4 46.79 n/a
2024 04 21 9:00 253.0 0.0 0.00 48.3 9.0 36.59 n/a
2024 04 21 10:00 252.6 0.0 0.00 49.9 9.9 35.33 n/a
2024 04 21 11:00 252.3 0.0 0.00 51.5 10.9 33.66 n/a
2024 04 21 12:00 252.1 0.0 0.00 53.0 11.7 31.75 n/a
2024 04 21 13:00 252.3 0.0 0.00 54.4 12.4 28.47 n/a
2024 04 21 14:00 252.5 0.0 0.00 55.8 13.2 27.69 n/a
2024 04 21 15:00 253.0 0.0 0.00 56.7 13.7 25.03 n/a
2024 04 21 16:00 253.2 0.0 0.00 57.3 14.1 23.88 n/a
2024 04 21 17:00 252.9 0.0 0.00 57.7 14.3 23.3 n/a
2024 04 21 18:00 252.7 0.0 0.00 57.2 14.0 22.83 n/a
2024 04 21 19:00 253.4 0.0 0.00 55.8 13.2 24.74 n/a
2024 04 21 20:00 254.3 0.0 0.00 52.0 11.1 28.9 n/a
2024 04 21 21:00 254.9 0.0 0.00 48.4 9.1 35.79 n/a
2024 04 21 22:00 255.7 0.0 0.00 44.4 6.9 48.33 n/a
2024 04 21 23:00 256.7 0.0 0.00 42.1 5.6 55.96 n/a
2024 04 21 24:00 257.7 0.0 0.00 40.7 4.8 60.38 n/a
2024 04 22 1:00 258.1 0.0 0.00 39.8 4.3 58.24 n/a
2024 04 22 2:00 258.2 0.0 0.00 39.0 3.9 59.65 n/a
2024 04 22 3:00 258.3 0.0 0.00 38.3 3.5 60.24 n/a
2024 04 22 4:00 257.6 0.0 0.00 38.8 3.8 58.49 n/a
2024 04 22 5:00 257.5 0.0 0.00 38.7 3.7 58.97 n/a
2024 04 22 6:00 257.7 0.0 0.00 37.7 3.2 62.59 n/a
2024 04 22 7:00 256.4 0.0 0.00 39.6 4.2 60.07 n/a
2024 04 22 8:00 254.4 0.0 0.00 46.0 7.8 50.44 n/a
2024 04 22 9:00 253.3 0.0 0.00 53.2 11.8 38.75 n/a
2024 04 22 10:00 252.7 0.0 0.00 57.6 14.2 34.69 n/a
2024 04 22 11:00 252.4 0.0 0.00 61.0 16.1 30.88 n/a
2024 04 22 12:00 252.1 0.0 0.00 63.1 17.3 30.08 n/a
2024 04 22 13:00 252.4 0.0 0.00 64.3 18.0 30.39 n/a
2024 04 22 14:00 252.5 0.0 0.00 65.4 18.5 29.2 n/a
2024 04 22 15:00 252.5 0.0 0.00 66.4 19.1 28.42 n/a
2024 04 22 16:00 252.6 0.0 0.00 66.4 19.1 28.5 n/a
2024 04 22 17:00 252.9 0.0 0.00 65.1 18.4 30.14 n/a
2024 04 22 18:00 253.2 0.0 0.00 63.9 17.7 30.95 n/a
2024 04 22 19:00 253.3 0.0 0.00 62.4 16.9 31.46 n/a
2024 04 22 20:00 253.9 0.0 0.00 60.5 15.8 33.73 n/a
2024 04 22 21:00 253.9 0.0 0.00 58.8 14.9 36.37 n/a
2024 04 22 22:00 254.3 0.0 0.00 57.0 13.9 38.88 n/a
2024 04 22 23:00 254.6 0.0 0.00 55.6 13.1 41.79 n/a
2024 04 22 24:00 254.6 0.0 0.00 55.4 13.0 43.27 n/a
2024 04 23 1:00 254.6 0.0 0.00 55.1 12.8 45.38 n/a
2024 04 23 2:00 254.7 0.0 0.00 54.3 12.4 48.72 n/a
2024 04 23 3:00 255.2 0.0 0.00 54.1 12.3 51.6 n/a
2024 04 23 4:00 255.8 0.0 0.00 52.5 11.4 56.5 n/a
2024 04 23 5:00 256.0 0.0 0.00 51.8 11.0 59.37 n/a
2024 04 23 6:00 256.0 0.0 0.00 52.5 11.4 60.73 n/a
2024 04 23 7:00 256.0 0.0 0.00 53.7 12.1 62.45 n/a
2024 04 23 8:00 255.1 0.0 0.00 55.9 13.3 61.85 n/a
2024 04 23 9:00 253.8 0.0 0.00 60.8 16.0 56.04 n/a
2024 04 23 10:00 253.3 0.0 0.00 63.4 17.4 53.61 n/a
2024 04 23 11:00 253.1 0.0 0.00 65.9 18.8 50.8 n/a
2024 04 23 12:00 254.0 0.0 0.00 65.1 18.4 51.3 n/a
2024 04 23 13:00 Wet 327.6 0.0 0.00 61.7 16.5 58.95 n/a
2024 04 23 14:00 278.6 0.0 0.00 62.5 16.9 59.98 n/a
2024 04 23 15:00 253.9 0.0 0.00 65.5 18.6 52.25 n/a
2024 04 23 16:00 253.8 0.0 0.00 68.8 20.4 40 n/a
2024 04 23 17:00 253.4 0.0 0.00 70.1 21.2 35.82 n/a
2024 04 23 18:00 253.3 0.0 0.00 70.1 21.1 36.61 n/a
2024 04 23 19:00 254.0 0.0 0.00 67.6 19.8 36.15 n/a
2024 04 23 20:00 254.5 0.0 0.00 62.7 17.0 32.08 n/a
2024 04 23 21:00 254.5 0.0 0.00 60.0 15.5 31.09 n/a
2024 04 23 22:00 253.9 0.0 0.00 60.0 15.6 29.28 n/a
2024 04 23 23:00 254.3 0.0 0.00 57.6 14.2 32.81 n/a
2024 04 23 24:00 254.6 0.0 0.00 56.1 13.4 35.6 n/a
2024 04 24 1:00 254.9 0.0 0.00 53.8 12.1 39.84 n/a
2024 04 24 2:00 256.0 0.0 0.00 48.8 9.3 50.73 n/a
2024 04 24 3:00 256.6 0.0 0.00 46.4 8.0 55.41 n/a
2024 04 24 4:00 257.6 0.0 0.00 44.9 7.2 60.42 n/a
2024 04 24 5:00 258.9 0.0 0.00 42.7 6.0 66.75 n/a
2024 04 24 6:00 259.1 0.0 0.00 41.4 5.2 71.98 n/a
2024 04 24 7:00 257.0 0.0 0.00 45.0 7.2 72.15 n/a
2024 04 24 8:00 254.2 0.0 0.00 52.5 11.4 53.56 n/a
2024 04 24 9:00 252.7 0.0 0.00 58.5 14.7 45.73 n/a
2024 04 24 10:00 251.8 0.0 0.00 63.2 17.4 36.91 n/a
2024 04 24 11:00 250.9 0.0 0.00 65.8 18.8 31.65 n/a
2024 04 24 12:00 251.1 0.0 0.00 67.0 19.5 30.82 n/a
2024 04 24 13:00 251.5 0.0 0.00 67.6 19.8 30.38 n/a
2024 04 24 14:00 251.8 0.0 0.00 67.9 20.0 29.56 n/a
2024 04 24 15:00 252.0 0.0 0.00 68.8 20.4 29.06 n/a
2024 04 24 16:00 252.0 0.0 0.00 68.7 20.4 27.16 n/a
2024 04 24 17:00 252.1 0.0 0.00 69.7 20.9 25.09 n/a
2024 04 24 18:00 251.9 0.0 0.00 69.3 20.7 23.84 n/a
2024 04 24 19:00 252.6 0.0 0.00 67.7 19.8 27.5 n/a
2024 04 24 20:00 253.9 0.0 0.00 62.9 17.1 34.82 n/a
2024 04 24 21:00 254.1 0.0 0.00 60.1 15.6 38.78 n/a
2024 04 24 22:00 253.9 0.0 0.00 60.3 15.7 38.37 n/a
2024 04 24 23:00 254.1 0.0 0.00 59.8 15.4 39.07 n/a
2024 04 24 24:00 254.4 0.0 0.00 58.7 14.8 43.74 n/a
2024 04 25 1:00 254.6 0.0 0.00 58.4 14.7 43.88 n/a
2024 04 25 2:00 256.2 0.0 0.00 57.6 14.2 45.14 n/a
2024 04 25 3:00 254.6 0.0 0.00 57.9 14.4 43.49 n/a
2024 04 25 4:00 Wet 362.1 0.0 0.00 57.1 14.0 48.98 n/a
2024 04 25 5:00 Wet 539.2 0.1 2.79 52.5 11.4 75.29 n/a
2024 04 25 6:00 Wet 478.3 0.0 1.02 50.0 10.0 85.3 n/a
2024 04 25 7:00 Wet 554.7 0.1 3.56 49.4 9.7 87.1 n/a
2024 04 25 8:00 Wet 536.0 0.1 2.29 50.0 10.0 86.5 n/a
2024 04 25 9:00 Wet 530.6 0.1 3.05 50.5 10.3 87.8 n/a
2024 04 25 10:00 Wet 398.0 0.0 0.51 51.7 10.9 84.7 n/a
2024 04 25 11:00 Wet 493.0 0.1 1.52 51.6 10.9 86.2 n/a
2024 04 25 12:00 Wet 467.4 0.1 1.27 51.6 10.9 88.7 n/a
2024 04 25 13:00 Wet 315.4 0.0 0.00 53.3 11.8 88.2 n/a
2024 04 25 14:00 Wet 508.2 0.1 1.78 52.8 11.6 90.1 n/a
2024 04 25 15:00 Wet 567.4 0.1 2.79 51.8 11.0 95.5 n/a
2024 04 25 16:00 Wet 633.0 0.4 9.14 51.0 10.6 96.9 n/a
2024 04 25 17:00 Wet 605.2 0.2 4.32 50.5 10.3 97.5 n/a
2024 04 25 18:00 Wet 526.2 0.1 2.79 50.6 10.3 97 n/a
2024 04 25 19:00 Wet 446.3 0.0 0.76 51.1 10.6 96.6 n/a
2024 04 25 20:00 Wet 354.6 0.0 0.00 52.0 11.1 95.9 n/a
2024 04 25 21:00 Wet 338.8 0.0 0.51 54.4 12.5 88.7 n/a
2024 04 25 22:00 260.0 0.0 0.00 57.1 13.9 81.2 n/a
2024 04 25 23:00 258.8 0.0 0.00 58.4 14.6 77.81 n/a
2024 04 25 24:00 Wet 332.8 0.3 6.35 58.1 14.5 77.08 n/a
2024 04 26 1:00 Wet 303.6 0.0 0.25 54.4 12.5 88.3 n/a
2024 04 26 2:00 Wet 395.3 0.1 3.05 53.9 12.2 87.4 n/a
2024 04 26 3:00 Wet 443.1 0.5 12.95 53.8 12.1 95.5 n/a
2024 04 26 4:00 278.5 0.0 0.00 54.6 12.5 89.3 n/a
2024 04 26 5:00 Wet 300.9 0.0 0.00 55.7 13.2 87 n/a
2024 04 26 6:00 Wet 383.5 0.1 1.52 56.4 13.6 88.2 n/a
2024 04 26 7:00 Wet 431.6 0.0 1.02 56.3 13.5 91.1 n/a
2024 04 26 8:00 Wet 516.0 0.1 2.79 57.5 14.2 97.4 n/a
2024 04 26 9:00 Wet 434.8 0.1 1.78 58.9 14.9 97.6 n/a
2024 04 26 10:00 267.7 0.0 0.00 60.3 15.7 89.3 n/a
2024 04 26 11:00 258.2 0.0 0.00 62.9 17.2 81.2 n/a
2024 04 26 12:00 257.5 0.0 0.00 64.3 18.0 76.74 n/a
2024 04 26 13:00 257.8 0.0 0.00 65.9 18.8 74.92 n/a
2024 04 26 14:00 258.0 0.0 0.00 67.2 19.5 75.01 n/a
2024 04 26 15:00 257.6 0.0 0.00 69.1 20.6 72.89 n/a
2024 04 26 16:00 257.8 0.0 0.00 69.1 20.6 74.24 n/a
2024 04 26 17:00 258.6 0.0 0.00 66.8 19.4 79.89 n/a
2024 04 26 18:00 Wet 492.0 0.4 10.67 63.7 17.6 85.5 n/a
2024 04 26 19:00 Wet 369.0 0.2 4.06 61.5 16.4 88.6 n/a
2024 04 26 20:00 270.3 0.0 0.00 63.3 17.4 86.7 n/a
2024 04 26 21:00 260.2 0.0 0.00 66.0 18.9 83.8 n/a
2024 04 26 22:00 259.6 0.0 0.00 66.9 19.4 80.9 n/a
2024 04 26 23:00 259.5 0.0 0.00 67.1 19.5 81 n/a
2024 04 26 24:00 259.9 0.0 0.00 66.6 19.2 81.8 n/a
2024 04 27 1:00 260.1 0.0 0.00 65.8 18.8 83.2 n/a
2024 04 27 2:00 259.7 0.0 0.00 66.5 19.2 82.5 n/a
2024 04 27 3:00 259.3 0.0 0.00 67.9 20.0 79.65 n/a
2024 04 27 4:00 259.3 0.0 0.00 67.1 19.5 79.98 n/a
2024 04 27 5:00 259.3 0.0 0.00 65.8 18.8 82.2 n/a
2024 04 27 6:00 259.5 0.0 0.00 65.4 18.5 82.6 n/a
2024 04 27 7:00 259.3 0.0 0.00 66.1 18.9 81.8 n/a
2024 04 27 8:00 259.3 0.0 0.00 66.2 19.0 82.2 n/a
2024 04 27 9:00 258.3 0.0 0.00 67.9 19.9 80.3 n/a
2024 04 27 10:00 257.7 0.0 0.00 70.9 21.6 76.04 n/a
2024 04 27 11:00 256.7 0.0 0.00 73.1 22.9 73.08 n/a
2024 04 27 12:00 256.0 0.0 0.00 75.8 24.3 66.66 n/a
2024 04 27 13:00 255.9 0.0 0.00 76.6 24.8 64.5 n/a
2024 04 27 14:00 255.9 0.0 0.00 77.3 25.2 62.64 n/a
2024 04 27 15:00 256.0 0.0 0.00 77.0 25.0 62.79 n/a
2024 04 27 16:00 256.5 0.0 0.00 75.8 24.4 64.83 n/a
2024 04 27 17:00 257.0 0.0 0.00 75.0 23.9 67.42 n/a
2024 04 27 18:00 257.2 0.0 0.00 74.1 23.4 68.53 n/a
2024 04 27 19:00 257.5 0.0 0.00 73.0 22.8 69.93 n/a
2024 04 27 20:00 Wet 482.6 0.6 14.73 64.7 18.2 87.4 n/a
2024 04 27 21:00 Wet 561.1 0.2 5.33 60.4 15.8 99.8 n/a
2024 04 27 22:00 Wet 512.3 0.1 2.79 60.5 15.9 99.8 n/a
2024 04 27 23:00 Wet 591.5 0.6 15.75 60.3 15.7 99.8 n/a
2024 04 27 24:00 Wet 591.3 1.0 25.15 59.3 15.2 99.8 n/a
2024 04 28 1:00 Wet 572.5 0.3 7.37 59.2 15.1 99.8 n/a
2024 04 28 2:00 Wet 562.0 0.3 7.11 59.5 15.3 99.8 n/a
2024 04 28 3:00 Wet 666.7 0.9 23.37 58.9 14.9 99.8 n/a
2024 04 28 4:00 Wet 621.9 0.3 8.13 58.8 14.9 99.8 n/a
2024 04 28 5:00 Wet 612.3 0.2 4.83 58.6 14.8 99.8 n/a
2024 04 28 6:00 Wet 631.7 0.2 4.57 58.3 14.6 99.8 n/a
2024 04 28 7:00 Wet 495.7 0.0 1.02 58.0 14.4 99.8 n/a
2024 04 28 8:00 Wet 441.2 0.0 0.25 58.1 14.5 99.8 n/a
2024 04 28 9:00 Wet 326.7 0.0 0.00 58.6 14.8 99.7 n/a
2024 04 28 10:00 270.5 0.0 0.00 59.7 15.4 99.2 n/a
2024 04 28 11:00 260.9 0.0 0.00 60.5 15.8 94.1 n/a
2024 04 28 12:00 259.5 0.0 0.00 62.2 16.8 89 n/a
2024 04 28 13:00 Wet 378.7 0.0 0.00 63.3 17.4 85.8 n/a
2024 04 28 14:00 275.6 0.0 0.00 65.4 18.6 79.82 n/a
2024 04 28 15:00 257.8 0.0 0.00 66.1 19.0 73.73 n/a
2024 04 28 16:00 257.6 0.0 0.00 66.7 19.3 73.14 n/a
2024 04 28 17:00 257.9 0.0 0.00 66.3 19.1 76.92 n/a
2024 04 28 18:00 258.6 0.0 0.00 65.2 18.5 80.9 n/a
2024 04 28 19:00 259.6 0.0 0.00 64.5 18.0 83.5 n/a
2024 04 28 20:00 261.4 0.0 0.00 63.5 17.5 86.2 n/a
2024 04 28 21:00 266.3 0.0 0.00 62.5 17.0 88.9 n/a
2024 04 28 22:00 266.1 0.0 0.00 62.3 16.9 90 n/a
2024 04 28 23:00 Wet 289.0 0.0 0.00 61.7 16.5 95.6 n/a
2024 04 28 24:00 Wet 291.4 0.0 0.00 61.4 16.4 98 n/a
2024 04 29 1:00 272.1 0.0 0.00 60.7 15.9 92.8 n/a
2024 04 29 2:00 260.2 0.0 0.00 58.4 14.7 79.19 n/a
2024 04 29 3:00 261.8 0.0 0.00 56.4 13.5 76.7 n/a
2024 04 29 4:00 267.8 0.0 0.00 54.7 12.6 78.6 n/a
2024 04 29 5:00 Wet 381.5 0.0 0.00 52.1 11.2 87 n/a
2024 04 29 6:00 Wet 549.7 0.0 0.00 50.6 10.3 91.3 n/a
2024 04 29 7:00 Wet 504.7 0.0 0.00 51.5 10.8 95.8 n/a
2024 04 29 8:00 271.8 0.0 0.00 56.5 13.6 76 n/a
2024 04 29 9:00 253.7 0.0 0.00 60.9 16.1 53.81 n/a
2024 04 29 10:00 252.6 0.0 0.00 63.0 17.2 48.4 n/a
2024 04 29 11:00 252.5 0.0 0.00 64.4 18.0 49.79 n/a
2024 04 29 12:00 252.3 0.0 0.00 66.4 19.1 46.49 n/a
2024 04 29 13:00 252.5 0.0 0.00 68.1 20.1 43.43 n/a
2024 04 29 14:00 253.0 0.0 0.00 69.7 21.0 44.41 n/a
2024 04 29 15:00 254.0 0.0 0.00 71.1 21.7 43.29 n/a
2024 04 29 16:00 254.4 0.0 0.00 72.0 22.2 41.04 n/a
2024 04 29 17:00 254.1 0.0 0.00 72.5 22.5 41.19 n/a
2024 04 29 18:00 253.8 0.0 0.00 72.3 22.4 40.87 n/a
2024 04 29 19:00 254.5 0.0 0.00 70.3 21.3 46.28 n/a
2024 04 29 20:00 256.6 0.0 0.00 65.9 18.8 55.47 n/a
2024 04 29 21:00 258.0 0.0 0.00 62.4 16.9 63.32 n/a
2024 04 29 22:00 257.9 0.0 0.00 61.2 16.2 64.99 n/a
2024 04 29 23:00 258.1 0.0 0.00 60.6 15.9 66.85 n/a
2024 04 29 24:00 258.8 0.0 0.00 59.5 15.3 71.7 n/a
2024 04 30 1:00 259.8 0.0 0.00 58.7 14.8 74.87 n/a
2024 04 30 2:00 259.9 0.0 0.00 58.4 14.7 73.35 n/a
2024 04 30 3:00 270.7 0.0 0.00 56.2 13.4 77.76 n/a
2024 04 30 4:00 264.6 0.0 0.00 55.4 13.0 78.33 n/a
2024 04 30 5:00 268.1 0.0 0.00 55.0 12.8 78.3 n/a
2024 04 30 6:00 259.6 0.0 0.00 55.8 13.2 75.12 n/a
2024 04 30 7:00 259.1 0.0 0.00 56.4 13.6 76.01 n/a
2024 04 30 8:00 255.9 0.0 0.00 59.8 15.4 71.77 n/a
2024 04 30 9:00 254.8 0.0 0.00 65.6 18.7 67.08 n/a
2024 04 30 10:00 254.6 0.0 0.00 69.9 21.1 66.12 n/a
2024 04 30 11:00 254.5 0.0 0.00 73.2 22.9 62.49 n/a
2024 04 30 12:00 254.4 0.0 0.00 75.7 24.3 55.61 n/a
2024 04 30 13:00 254.3 0.0 0.00 77.4 25.2 51.62 n/a
2024 04 30 14:00 254.1 0.0 0.00 78.9 26.1 46.42 n/a
2024 04 30 15:00 254.1 0.0 0.00 80.5 26.9 41.3 n/a
2024 04 30 16:00 254.0 0.0 0.00 81.2 27.4 38.62 n/a
2024 04 30 17:00 253.9 0.0 0.00 80.5 27.0 40.75 n/a
2024 04 30 18:00 254.4 0.0 0.00 78.2 25.7 42.73 n/a
2024 04 30 19:00 255.1 0.0 0.00 75.5 24.2 48.74 n/a
2024 04 30 20:00 258.7 0.0 0.00 74.0 23.3 53.6 n/a
2024 04 30 21:00 257.1 0.0 0.00 73.5 23.1 57.05 n/a
2024 04 30 22:00 255.2 0.0 0.00 73.6 23.1 46 n/a
2024 04 30 23:00 255.5 0.0 0.00 71.2 21.8 52.85 n/a
2024 04 30 24:00 256.3 0.0 0.00 68.5 20.3 60.05 n/a
2024 05 01 1:00 257.6 0.0 0.00 65.8 18.8 67.96 n/a
2024 05 01 2:00 257.4 0.0 0.00 65.0 18.3 68.68 n/a
2024 05 01 3:00 258.0 0.0 0.00 63.9 17.7 69.71 n/a
2024 05 01 4:00 258.9 0.0 0.00 62.5 16.9 73.86 n/a
2024 05 01 5:00 259.6 0.0 0.00 61.3 16.3 79.05 n/a
2024 05 01 6:00 260.4 0.0 0.00 61.6 16.4 83.3 n/a
2024 05 01 7:00 258.9 0.0 0.00 61.8 16.5 79.82 n/a
2024 05 01 8:00 256.6 0.0 0.00 63.1 17.3 69.49 n/a
2024 05 01 9:00 254.9 0.0 0.00 65.3 18.5 66.21 n/a
2024 05 01 10:00 254.5 0.0 0.00 67.2 19.6 64.01 n/a
2024 05 01 11:00 253.9 0.0 0.00 69.6 20.9 61.86 n/a
2024 05 01 12:00 253.8 0.0 0.00 72.5 22.5 58.7 n/a
2024 05 01 13:00 253.7 0.0 0.00 74.4 23.6 55.78 n/a
2024 05 01 14:00 253.9 0.0 0.00 75.8 24.3 54.75 n/a
2024 05 01 15:00 254.0 0.0 0.00 77.4 25.2 50.56 n/a
2024 05 01 16:00 254.3 0.0 0.00 78.4 25.8 47.37 n/a
2024 05 01 17:00 254.5 0.0 0.00 78.4 25.8 47.91 n/a
2024 05 01 18:00 254.5 0.0 0.00 77.9 25.5 48.35 n/a
2024 05 01 19:00 254.8 0.0 0.00 76.2 24.6 53.91 n/a
2024 05 01 20:00 255.9 0.0 0.00 73.3 23.0 59.53 n/a
2024 05 01 21:00 256.2 0.0 0.00 71.8 22.1 61.89 n/a
2024 05 01 22:00 256.6 0.0 0.00 70.7 21.5 65.81 n/a
2024 05 01 23:00 256.6 0.0 0.00 70.4 21.4 66.8 n/a
2024 05 01 24:00 261.6 0.0 0.00 69.6 20.9 68.66 n/a
2024 05 02 1:00 257.3 0.0 0.00 68.5 20.3 69.45 n/a
2024 05 02 2:00 257.4 0.0 0.00 67.9 19.9 71.37 n/a
2024 05 02 3:00 258.0 0.0 0.00 67.6 19.8 75.13 n/a
2024 05 02 4:00 258.0 0.0 0.00 67.4 19.7 77.82 n/a
2024 05 02 5:00 258.2 0.0 0.00 67.3 19.6 78.48 n/a
2024 05 02 6:00 258.0 0.0 0.00 68.1 20.0 76.93 n/a
2024 05 02 7:00 257.8 0.0 0.00 68.8 20.5 74.57 n/a
2024 05 02 8:00 259.9 0.0 0.00 69.8 21.0 71.85 n/a
2024 05 02 9:00 257.0 0.0 0.00 70.8 21.5 71.39 n/a
2024 05 02 10:00 257.3 0.0 0.00 70.5 21.4 72.77 n/a
2024 05 02 11:00 Wet 347.0 0.0 0.25 70.5 21.4 74.71 n/a
2024 05 02 12:00 Wet 451.3 0.1 2.54 68.6 20.4 84.8 n/a
2024 05 02 13:00 Wet 427.6 0.1 1.52 68.2 20.1 87.8 n/a
2024 05 02 14:00 272.1 0.0 0.00 70.2 21.2 81.5 n/a
2024 05 02 15:00 262.7 0.0 0.00 69.4 20.8 77.15 n/a
2024 05 02 16:00 Wet 344.3 0.0 0.25 65.9 18.9 83.8 n/a
2024 05 02 17:00 Wet 489.3 0.1 1.52 63.6 17.5 91.9 n/a
2024 05 02 18:00 Wet 307.5 0.0 0.00 63.7 17.6 95.7 n/a
2024 05 02 19:00 Wet 322.7 0.0 0.25 63.0 17.2 94.6 n/a
2024 05 02 20:00 Wet 300.5 0.0 0.00 59.9 15.5 95.3 n/a
2024 05 02 21:00 272.3 0.0 0.00 58.5 14.7 93.6 n/a
2024 05 02 22:00 264.7 0.0 0.00 57.8 14.3 89.9 n/a
2024 05 02 23:00 265.0 0.0 0.00 57.5 14.2 88.8 n/a
2024 05 02 24:00 261.0 0.0 0.00 57.4 14.1 87.5 n/a
2024 05 03 1:00 Wet 402.8 0.0 1.02 57.1 13.9 87.5 n/a
2024 05 03 2:00 Wet 302.8 0.0 0.00 56.9 13.8 87.6 n/a
2024 05 03 3:00 267.7 0.0 0.00 57.1 13.9 86.9 n/a
2024 05 03 4:00 261.2 0.0 0.00 57.0 13.9 87.4 n/a
2024 05 03 5:00 261.0 0.0 0.00 56.7 13.7 86.3 n/a
2024 05 03 6:00 262.5 0.0 0.00 56.2 13.4 86.5 n/a
2024 05 03 7:00 260.3 0.0 0.00 56.2 13.4 85.1 n/a
2024 05 03 8:00 257.6 0.0 0.00 57.9 14.4 78.41 n/a
2024 05 03 9:00 255.8 0.0 0.00 60.5 15.8 71.58 n/a
2024 05 03 10:00 254.9 0.0 0.00 63.0 17.2 70.48 n/a
2024 05 03 11:00 254.4 0.0 0.00 66.1 19.0 68.09 n/a
2024 05 03 12:00 254.6 0.0 0.00 68.2 20.1 69.69 n/a
2024 05 03 13:00 254.6 0.0 0.00 69.6 20.9 68.93 n/a
2024 05 03 14:00 254.9 0.0 0.00 70.2 21.2 67.09 n/a
2024 05 03 15:00 255.4 0.0 0.00 70.8 21.6 65.69 n/a
2024 05 03 16:00 255.8 0.0 0.00 72.1 22.3 63.54 n/a
2024 05 03 17:00 255.7 0.0 0.00 72.5 22.5 59.85 n/a
2024 05 03 18:00 255.9 0.0 0.00 72.3 22.4 62.07 n/a
2024 05 03 19:00 256.7 0.0 0.00 70.3 21.3 67.12 n/a
2024 05 03 20:00 257.8 0.0 0.00 68.2 20.1 72.89 n/a
2024 05 03 21:00 259.0 0.0 0.00 66.1 18.9 77.62 n/a
2024 05 03 22:00 261.3 0.0 0.00 64.7 18.1 81.3 n/a
2024 05 03 23:00 Wet 285.9 0.0 0.00 63.4 17.4 84.9 n/a
2024 05 03 24:00 Wet 295.4 0.0 0.00 62.7 17.1 87.6 n/a
2024 05 04 1:00 262.2 0.0 0.00 63.9 17.7 84.1 n/a
2024 05 04 2:00 262.2 0.0 0.00 63.6 17.6 85 n/a
2024 05 04 3:00 266.1 0.0 0.00 62.9 17.2 87.7 n/a
2024 05 04 4:00 263.5 0.0 0.00 63.3 17.4 88.8 n/a
2024 05 04 5:00 Wet 350.9 0.0 0.00 64.0 17.8 88.3 n/a
2024 05 04 6:00 Wet 355.0 0.0 0.00 63.9 17.7 88.2 n/a
2024 05 04 7:00 278.7 0.0 0.00 64.3 17.9 83.4 n/a
2024 05 04 8:00 257.6 0.0 0.00 65.0 18.3 77.59 n/a
2024 05 04 9:00 255.3 0.0 0.00 66.9 19.4 72.51 n/a
2024 05 04 10:00 254.6 0.0 0.00 68.6 20.3 67.16 n/a
2024 05 04 11:00 254.8 0.0 0.00 69.0 20.6 66.58 n/a
2024 05 04 12:00 255.4 0.0 0.00 68.2 20.1 66.97 n/a
2024 05 04 13:00 256.0 0.0 0.00 65.9 18.9 71.94 n/a
2024 05 04 14:00 256.3 0.0 0.00 62.0 16.7 77.72 n/a
2024 05 04 15:00 256.3 0.0 0.00 65.1 18.4 67.97 n/a
2024 05 04 16:00 256.5 0.0 0.00 64.9 18.3 63.55 n/a
2024 05 04 17:00 256.4 0.0 0.00 64.3 18.0 63.03 n/a
2024 05 04 18:00 256.3 0.0 0.00 63.2 17.4 63.18 n/a
2024 05 04 19:00 256.9 0.0 0.00 60.7 15.9 65.9 n/a
2024 05 04 20:00 257.6 0.0 0.00 57.9 14.4 69.72 n/a
2024 05 04 21:00 258.0 0.0 0.00 56.6 13.7 72.08 n/a
2024 05 04 22:00 258.8 0.0 0.00 55.2 12.9 74.18 n/a
2024 05 04 23:00 259.5 0.0 0.00 54.0 12.2 76.45 n/a
2024 05 04 24:00 260.9 0.0 0.00 52.8 11.6 79.34 n/a
2024 05 05 1:00 261.5 0.0 0.00 52.1 11.2 81.3 n/a
2024 05 05 2:00 261.7 0.0 0.00 51.5 10.9 82.8 n/a
2024 05 05 3:00 262.5 0.0 0.00 51.1 10.6 84.7 n/a
2024 05 05 4:00 262.3 0.0 0.00 50.9 10.5 85.6 n/a
2024 05 05 5:00 263.9 0.0 0.00 50.6 10.4 86 n/a
2024 05 05 6:00 262.5 0.0 0.00 50.4 10.2 87.1 n/a
2024 05 05 7:00 259.6 0.0 0.00 51.6 10.9 83.9 n/a
2024 05 05 8:00 258.4 0.0 0.00 53.1 11.7 75.92 n/a
2024 05 05 9:00 261.1 0.0 0.00 53.8 12.1 71.67 n/a
2024 05 05 10:00 Wet 433.5 0.1 2.29 52.7 11.5 81.5 n/a
2024 05 05 11:00 Wet 450.4 0.1 3.30 53.4 11.9 83.8 n/a
2024 05 05 12:00 Wet 615.9 0.2 3.81 52.2 11.2 92.4 n/a
2024 05 05 13:00 Wet 555.6 0.0 1.02 52.6 11.4 96.1 n/a
2024 05 05 14:00 Wet 522.6 0.0 0.76 53.5 12.0 95.4 n/a
2024 05 05 15:00 Wet 428.3 0.0 0.00 54.0 12.2 94.8 n/a
2024 05 05 16:00 Wet 571.1 0.0 0.76 54.6 12.6 95.6 n/a
2024 05 05 17:00 Wet 489.7 0.0 0.00 54.9 12.7 95.8 n/a
2024 05 05 18:00 Wet 472.3 0.0 0.25 55.4 13.0 96.2 n/a
2024 05 05 19:00 Wet 360.7 0.0 0.00 56.1 13.4 96.3 n/a
2024 05 05 20:00 Wet 316.1 0.0 0.00 56.4 13.5 96.2 n/a
2024 05 05 21:00 Wet 314.1 0.0 0.00 56.0 13.3 96.9 n/a
2024 05 05 22:00 Wet 302.0 0.0 0.00 56.1 13.4 97.4 n/a
2024 05 05 23:00 Wet 288.5 0.0 0.00 56.3 13.5 97.6 n/a
2024 05 05 24:00 270.2 0.0 0.00 56.7 13.7 97.9 n/a
2024 05 06 1:00 Wet 300.1 0.0 0.00 57.0 13.9 98.4 n/a
2024 05 06 2:00 Wet 379.9 0.0 0.00 57.5 14.1 99.1 n/a
2024 05 06 3:00 Wet 461.6 0.0 0.00 57.8 14.3 99.4 n/a
2024 05 06 4:00 Wet 448.9 0.0 0.00 57.7 14.3 99.5 n/a
2024 05 06 5:00 Wet 423.3 0.0 0.00 57.7 14.3 99.6 n/a
2024 05 06 6:00 Wet 357.2 0.0 0.00 57.8 14.3 99.7 n/a
2024 05 06 7:00 Wet 317.2 0.0 0.00 58.0 14.4 99.7 n/a
2024 05 06 8:00 Wet 287.1 0.0 0.00 58.0 14.4 99.7 n/a
2024 05 06 9:00 268.7 0.0 0.00 59.0 15.0 99.5 n/a
2024 05 06 10:00 258.0 0.0 0.00 62.2 16.8 87.9 n/a
2024 05 06 11:00 270.8 0.0 0.00 65.1 18.4 79.4 n/a
2024 05 06 12:00 Wet 306.9 0.0 0.00 64.9 18.3 82.6 n/a
2024 05 06 13:00 256.3 0.0 0.00 69.5 20.8 76.05 n/a
2024 05 06 14:00 256.3 0.0 0.25 72.8 22.6 71.7 n/a
2024 05 06 15:00 256.6 0.0 0.00 73.9 23.3 70.82 n/a
2024 05 06 16:00 256.8 0.0 0.00 74.1 23.4 71.4 n/a
2024 05 06 17:00 257.1 0.0 0.00 74.4 23.6 71.46 n/a
2024 05 06 18:00 257.2 0.0 0.00 74.3 23.5 71.37 n/a
2024 05 06 19:00 257.2 0.0 0.00 73.8 23.2 70.76 n/a
2024 05 06 20:00 257.9 0.0 0.00 73.0 22.8 72.49 n/a
2024 05 06 21:00 257.9 0.0 0.00 72.6 22.5 73.36 n/a
2024 05 06 22:00 258.1 0.0 0.00 72.5 22.5 72.39 n/a
2024 05 06 23:00 Wet 461.9 1.0 24.38 64.1 17.9 84.8 n/a
2024 05 06 24:00 Wet 447.4 0.1 2.03 59.0 15.0 99.8 n/a
2024 05 07 1:00 Wet 322.8 0.0 0.00 59.0 15.0 99.8 n/a
2024 05 07 2:00 Wet 308.9 0.0 0.00 59.5 15.3 98.8 n/a
2024 05 07 3:00 Wet 317.5 0.0 0.00 59.1 15.1 98.6 n/a
2024 05 07 4:00 Wet 335.3 0.0 0.00 59.1 15.0 98.7 n/a
2024 05 07 5:00 Wet 367.6 0.0 0.25 58.4 14.7 98.5 n/a
2024 05 07 6:00 Wet 366.4 0.0 0.00 57.7 14.3 99.2 n/a
2024 05 07 7:00 Wet 311.2 0.0 0.00 58.9 14.9 99.5 n/a
2024 05 07 8:00 266.6 0.0 0.00 60.2 15.6 95.7 n/a
2024 05 07 9:00 258.0 0.0 0.00 61.9 16.6 85.6 n/a
2024 05 07 10:00 255.6 0.0 0.00 64.2 17.9 80.1 n/a
2024 05 07 11:00 254.6 0.0 0.00 68.2 20.1 71.15 n/a
2024 05 07 12:00 253.6 0.0 0.00 71.4 21.9 54.57 n/a
2024 05 07 13:00 253.6 0.0 0.00 73.6 23.1 47.24 n/a
2024 05 07 14:00 253.5 0.0 0.00 75.1 23.9 39.5 n/a
2024 05 07 15:00 253.8 0.0 0.00 76.3 24.6 34 n/a
2024 05 07 16:00 253.8 0.0 0.00 76.7 24.9 32.13 n/a
2024 05 07 17:00 253.3 0.0 0.00 76.6 24.8 27.31 n/a
2024 05 07 18:00 253.1 0.0 0.00 75.6 24.2 26.28 n/a
2024 05 07 19:00 253.6 0.0 0.00 72.8 22.6 33.73 n/a
2024 05 07 20:00 254.5 0.0 0.00 69.3 20.7 37.4 n/a
2024 05 07 21:00 255.1 0.0 0.00 66.2 19.0 41.63 n/a
2024 05 07 22:00 255.3 0.0 0.00 65.0 18.4 43.76 n/a
2024 05 07 23:00 255.3 0.0 0.00 63.6 17.6 45.46 n/a
2024 05 07 24:00 256.3 0.0 0.00 61.1 16.2 50.56 n/a
2024 05 08 1:00 256.8 0.0 0.00 59.6 15.3 54.73 n/a
2024 05 08 2:00 257.2 0.0 0.00 58.1 14.5 58.22 n/a
2024 05 08 3:00 257.8 0.0 0.00 56.1 13.4 64.26 n/a
2024 05 08 4:00 258.0 0.0 0.00 55.3 12.9 66.94 n/a
2024 05 08 5:00 257.9 0.0 0.00 55.0 12.8 67.48 n/a
2024 05 08 6:00 Wet 295.8 0.0 0.00 58.7 14.8 60.28 n/a
2024 05 08 7:00 257.2 0.0 0.00 61.9 16.6 60.43 n/a
2024 05 08 8:00 260.3 0.0 0.00 62.8 17.1 69.67 n/a
2024 05 08 9:00 257.5 0.0 0.00 62.7 17.1 78.83 n/a
2024 05 08 10:00 256.0 0.0 0.00 65.5 18.6 78.09 n/a
2024 05 08 11:00 254.9 0.0 0.00 69.7 21.0 74.25 n/a
2024 05 08 12:00 254.6 0.0 0.00 71.9 22.2 74.47 n/a
2024 05 08 13:00 254.9 0.0 0.00 74.1 23.4 73.06 n/a
2024 05 08 14:00 255.1 0.0 0.00 75.1 23.9 71.98 n/a
2024 05 08 15:00 255.6 0.0 0.00 75.6 24.2 70.26 n/a
2024 05 08 16:00 257.7 0.0 0.00 73.7 23.1 72.07 n/a
2024 05 08 17:00 257.3 0.0 0.00 71.5 22.0 75.87 n/a
2024 05 08 18:00 256.6 0.0 0.00 71.9 22.2 70.71 n/a
2024 05 08 19:00 258.3 0.0 0.00 70.7 21.5 77.33 n/a
2024 05 08 20:00 282.0 0.0 0.00 67.7 19.8 84.6 n/a
2024 05 08 21:00 273.3 0.0 0.00 67.7 19.8 79.74 n/a
2024 05 08 22:00 262.8 0.0 0.00 66.5 19.1 75.34 n/a
2024 05 08 23:00 260.3 0.0 0.00 64.2 17.9 71.43 n/a
2024 05 08 24:00 258.7 0.0 0.00 61.9 16.6 61.46 n/a
2024 05 09 1:00 257.5 0.0 0.00 59.5 15.3 53.57 n/a
2024 05 09 2:00 257.3 0.0 0.00 58.0 14.4 51.7 n/a
2024 05 09 3:00 257.4 0.0 0.00 56.6 13.7 54.47 n/a
2024 05 09 4:00 258.2 0.0 0.00 54.7 12.6 59.69 n/a
2024 05 09 5:00 258.7 0.0 0.00 53.1 11.7 64.06 n/a
2024 05 09 6:00 258.7 0.0 0.00 52.0 11.1 68.45 n/a
2024 05 09 7:00 256.3 0.0 0.00 54.9 12.7 66.24 n/a
2024 05 09 8:00 254.8 0.0 0.00 59.1 15.0 62.09 n/a
2024 05 09 9:00 254.2 0.0 0.00 63.0 17.2 57.75 n/a
2024 05 09 10:00 253.6 0.0 0.00 67.2 19.5 47.17 n/a
2024 05 09 11:00 252.8 0.0 0.00 69.9 21.1 36.67 n/a
2024 05 09 12:00 252.5 0.0 0.00 71.0 21.7 33.37 n/a
2024 05 09 13:00 252.9 0.0 0.00 71.3 21.8 37.07 n/a
2024 05 09 14:00 253.1 0.0 0.00 71.7 22.1 37.79 n/a
2024 05 09 15:00 253.6 0.0 0.00 72.2 22.3 37.51 n/a
2024 05 09 16:00 253.8 0.0 0.00 72.5 22.5 37.03 n/a
2024 05 09 17:00 253.8 0.0 0.00 72.4 22.5 35.3 n/a
2024 05 09 18:00 253.8 0.0 0.00 72.0 22.2 34.68 n/a
2024 05 09 19:00 253.9 0.0 0.00 70.7 21.5 38.66 n/a
2024 05 09 20:00 255.4 0.0 0.00 67.5 19.7 48.41 n/a
2024 05 09 21:00 256.9 0.0 0.00 63.6 17.6 59.38 n/a
2024 05 09 22:00 256.8 0.0 0.00 63.0 17.2 60.98 n/a
2024 05 09 23:00 257.3 0.0 0.00 61.8 16.5 65.13 n/a
2024 05 09 24:00 257.9 0.0 0.00 60.4 15.8 68.81 n/a
2024 05 10 1:00 259.1 0.0 0.00 59.0 15.0 72.28 n/a
2024 05 10 2:00 259.0 0.0 0.00 58.4 14.7 73.02 n/a
2024 05 10 3:00 260.1 0.0 0.00 56.4 13.6 77.22 n/a
2024 05 10 4:00 273.4 0.0 0.00 54.5 12.5 81.5 n/a
2024 05 10 5:00 Wet 334.5 0.0 0.00 52.3 11.3 86.2 n/a
2024 05 10 6:00 Wet 372.5 0.0 0.00 51.5 10.8 87.7 n/a
2024 05 10 7:00 Wet 303.8 0.0 0.00 53.3 11.8 85.6 n/a
2024 05 10 8:00 255.1 0.0 0.00 58.5 14.7 71.38 n/a
2024 05 10 9:00 254.5 0.0 0.00 62.0 16.6 62.61 n/a
2024 05 10 10:00 253.8 0.0 0.00 64.7 18.1 55.6 n/a
2024 05 10 11:00 252.9 0.0 0.00 66.7 19.3 44.9 n/a
2024 05 10 12:00 252.7 0.0 0.00 68.5 20.3 44.12 n/a
2024 05 10 13:00 252.7 0.0 0.00 69.1 20.6 42.87 n/a
2024 05 10 14:00 252.8 0.0 0.00 70.7 21.5 39.13 n/a
2024 05 10 15:00 253.5 0.0 0.00 71.4 21.9 36.73 n/a
2024 05 10 16:00 253.8 0.0 0.00 72.4 22.4 35.45 n/a
2024 05 10 17:00 253.5 0.0 0.00 72.7 22.6 35.15 n/a
2024 05 10 18:00 253.5 0.0 0.00 72.8 22.6 35.79 n/a
2024 05 10 19:00 253.9 0.0 0.00 71.5 21.9 39.16 n/a
2024 05 10 20:00 255.1 0.0 0.00 68.3 20.2 44.94 n/a
2024 05 10 21:00 256.3 0.0 0.00 64.3 17.9 53.22 n/a
2024 05 10 22:00 256.8 0.0 0.00 62.4 16.9 58.47 n/a
2024 05 10 23:00 257.3 0.0 0.00 61.0 16.1 61.46 n/a
2024 05 10 24:00 257.7 0.0 0.00 60.1 15.6 62.57 n/a
2024 05 11 1:00 258.3 0.0 0.00 58.8 14.9 65.02 n/a
2024 05 11 2:00 258.7 0.0 0.00 58.0 14.4 68.13 n/a
2024 05 11 3:00 259.7 0.0 0.00 56.6 13.6 71.7 n/a
2024 05 11 4:00 261.1 0.0 0.00 55.3 12.9 72.99 n/a
2024 05 11 5:00 276.9 0.0 0.00 52.8 11.6 79.17 n/a
2024 05 11 6:00 Wet 319.9 0.0 0.00 51.0 10.6 85.1 n/a
2024 05 11 7:00 273.3 0.0 0.00 54.2 12.3 81.5 n/a
2024 05 11 8:00 253.0 0.0 0.00 60.9 16.1 66.81 n/a
2024 05 11 9:00 252.3 0.0 0.00 65.9 18.8 48.49 n/a
2024 05 11 10:00 251.3 0.0 0.00 68.9 20.5 39.79 n/a
2024 05 11 11:00 251.0 0.0 0.00 70.9 21.6 35.99 n/a
2024 05 11 12:00 250.9 0.0 0.00 72.4 22.4 35.06 n/a
2024 05 11 13:00 250.8 0.0 0.00 73.6 23.1 31.41 n/a
2024 05 11 14:00 251.2 0.0 0.00 74.4 23.6 28.61 n/a
2024 05 11 15:00 252.1 0.0 0.00 75.3 24.1 28.26 n/a
2024 05 11 16:00 252.5 0.0 0.00 75.9 24.4 29.32 n/a
2024 05 11 17:00 252.3 0.0 0.00 75.9 24.4 28.75 n/a
2024 05 11 18:00 252.2 0.0 0.00 75.9 24.4 29.26 n/a
2024 05 11 19:00 252.7 0.0 0.00 74.3 23.5 33.46 n/a
2024 05 11 20:00 254.0 0.0 0.00 70.3 21.3 40.43 n/a
2024 05 11 21:00 254.7 0.0 0.00 67.6 19.8 45.86 n/a
2024 05 11 22:00 255.3 0.0 0.00 65.7 18.7 49.57 n/a
2024 05 11 23:00 255.8 0.0 0.00 63.2 17.4 56.75 n/a
2024 05 11 24:00 256.5 0.0 0.00 61.5 16.4 61.35 n/a
2024 05 12 1:00 257.1 0.0 0.00 60.1 15.6 64.76 n/a
2024 05 12 2:00 257.3 0.0 0.00 59.4 15.2 65.63 n/a
2024 05 12 3:00 257.9 0.0 0.00 58.3 14.6 67.44 n/a
2024 05 12 4:00 258.0 0.0 0.00 57.5 14.2 68.82 n/a
2024 05 12 5:00 259.0 0.0 0.00 56.7 13.7 71.46 n/a
2024 05 12 6:00 259.0 0.0 0.00 55.9 13.3 74.31 n/a
2024 05 12 7:00 255.9 0.0 0.00 58.4 14.7 72 n/a
2024 05 12 8:00 254.2 0.0 0.00 63.8 17.6 62.38 n/a
2024 05 12 9:00 253.6 0.0 0.00 68.3 20.2 57.81 n/a
2024 05 12 10:00 252.9 0.0 0.00 71.3 21.9 55.88 n/a
2024 05 12 11:00 252.5 0.0 0.00 73.8 23.2 53.32 n/a
2024 05 12 12:00 252.0 0.0 0.00 76.0 24.4 48.21 n/a
2024 05 12 13:00 252.7 0.0 0.00 76.7 24.8 44.41 n/a
2024 05 12 14:00 253.4 0.0 0.00 76.0 24.5 45.4 n/a
2024 05 12 15:00 253.8 0.0 0.00 75.6 24.2 47.93 n/a
2024 05 12 16:00 253.8 0.0 0.00 76.3 24.6 46.37 n/a
2024 05 12 17:00 253.7 0.0 0.00 76.9 24.9 46.18 n/a
2024 05 12 18:00 254.0 0.0 0.00 75.7 24.3 49.27 n/a
2024 05 12 19:00 254.9 0.0 0.00 73.8 23.3 55.19 n/a
2024 05 12 20:00 258.5 0.0 0.00 71.3 21.8 61.3 n/a
2024 05 12 21:00 257.1 0.0 0.00 69.5 20.8 67.97 n/a
2024 05 12 22:00 256.9 0.0 0.00 68.5 20.3 67.06 n/a
2024 05 12 23:00 257.3 0.0 0.00 66.8 19.3 69.64 n/a
2024 05 12 24:00 257.5 0.0 0.00 66.2 19.0 71.73 n/a
2024 05 13 1:00 257.6 0.0 0.00 65.5 18.6 72.43 n/a
2024 05 13 2:00 258.0 0.0 0.00 64.6 18.1 75.57 n/a
2024 05 13 3:00 258.1 0.0 0.00 64.3 18.0 76.58 n/a
2024 05 13 4:00 258.7 0.0 0.00 63.8 17.7 78.74 n/a
2024 05 13 5:00 271.4 0.0 0.00 63.3 17.4 80.5 n/a
2024 05 13 6:00 Wet 406.9 0.0 0.00 62.0 16.7 86.1 n/a
2024 05 13 7:00 Wet 473.5 0.0 0.76 61.6 16.4 91.8 n/a
2024 05 13 8:00 Wet 294.8 0.0 0.00 62.5 17.0 91.9 n/a
2024 05 13 9:00 257.2 0.0 0.00 64.7 18.2 79.94 n/a
2024 05 13 10:00 Wet 348.6 0.0 0.25 63.8 17.7 77.85 n/a
2024 05 13 11:00 Wet 560.9 0.1 2.03 61.4 16.3 88.5 n/a
2024 05 13 12:00 Wet 326.8 0.0 0.00 61.7 16.5 89.8 n/a
2024 05 13 13:00 256.6 0.0 0.00 64.3 18.0 80.6 n/a
2024 05 13 14:00 259.8 0.0 0.00 66.1 18.9 73.78 n/a
2024 05 13 15:00 Wet 367.7 0.1 3.30 64.5 18.1 82.1 n/a
2024 05 13 16:00 269.0 0.0 0.00 66.4 19.1 74.71 n/a
2024 05 13 17:00 256.6 0.0 0.00 67.7 19.9 70.08 n/a
2024 05 13 18:00 261.9 0.0 0.00 66.9 19.4 71.11 n/a
2024 05 13 19:00 Wet 358.6 0.0 0.25 62.8 17.1 84.8 n/a
2024 05 13 20:00 Wet 447.4 0.0 0.25 61.8 16.6 87.7 n/a
2024 05 13 21:00 Wet 378.9 0.0 0.00 60.7 15.9 95.5 n/a
2024 05 13 22:00 Wet 351.3 0.0 0.00 60.4 15.8 96.2 n/a
2024 05 13 23:00 Wet 376.2 0.0 0.00 59.1 15.1 96.8 n/a
2024 05 13 24:00 Wet 378.3 0.0 0.00 59.1 15.0 97.6 n/a
2024 05 14 1:00 Wet 340.4 0.0 0.00 59.4 15.2 98.2 n/a
2024 05 14 2:00 Wet 325.3 0.0 0.00 59.7 15.4 98.1 n/a
2024 05 14 3:00 Wet 347.3 0.0 0.00 59.2 15.1 98 n/a
2024 05 14 4:00 Wet 339.2 0.0 0.00 58.6 14.8 98.3 n/a
2024 05 14 5:00 Wet 326.5 0.0 0.00 58.2 14.5 98.3 n/a
2024 05 14 6:00 Wet 314.2 0.0 0.00 58.7 14.9 98.6 n/a
2024 05 14 7:00 Wet 310.3 0.0 0.00 59.4 15.2 98.3 n/a
2024 05 14 8:00 266.4 0.0 0.00 59.8 15.4 93.2 n/a
2024 05 14 9:00 259.2 0.0 0.00 60.2 15.7 85.8 n/a
2024 05 14 10:00 258.3 0.0 0.00 61.3 16.3 82.4 n/a
2024 05 14 11:00 256.8 0.0 0.00 64.2 17.9 75.71 n/a
2024 05 14 12:00 Wet 312.9 0.0 0.00 64.5 18.0 75.2 n/a
2024 05 14 13:00 261.2 0.0 0.00 66.2 19.0 72.81 n/a
2024 05 14 14:00 255.7 0.0 0.00 69.6 20.9 62.43 n/a
2024 05 14 15:00 255.7 0.0 0.00 71.0 21.7 60.66 n/a
2024 05 14 16:00 255.8 0.0 0.00 71.7 22.1 58.23 n/a
2024 05 14 17:00 255.9 0.0 0.00 70.9 21.6 60.15 n/a
2024 05 14 18:00 256.2 0.0 0.00 70.1 21.2 62.76 n/a
2024 05 14 19:00 256.6 0.0 0.00 69.3 20.7 64.8 n/a
2024 05 14 20:00 258.4 0.0 0.00 66.9 19.4 71.65 n/a
2024 05 14 21:00 263.1 0.0 0.00 64.5 18.1 79.79 n/a
2024 05 14 22:00 265.9 0.0 0.00 63.2 17.4 82.9 n/a
2024 05 14 23:00 282.3 0.0 0.00 61.9 16.6 85.8 n/a
2024 05 14 24:00 Wet 338.9 0.0 0.00 60.6 15.9 89 n/a
2024 05 15 1:00 Wet 424.3 0.0 0.00 59.7 15.4 95.2 n/a
2024 05 15 2:00 Wet 511.5 0.0 0.00 58.9 14.9 97 n/a
2024 05 15 3:00 Wet 553.0 0.0 0.00 58.3 14.6 98 n/a
2024 05 15 4:00 Wet 558.3 0.0 0.00 57.0 13.9 98.2 n/a
2024 05 15 5:00 Wet 512.8 0.0 0.00 56.2 13.5 98.9 n/a
2024 05 15 6:00 Wet 437.1 0.0 0.00 57.3 14.1 99.5 n/a
2024 05 15 7:00 Wet 383.0 0.0 0.00 58.2 14.6 99.8 n/a
2024 05 15 8:00 Wet 294.3 0.0 0.00 58.9 14.9 99.8 n/a
2024 05 15 9:00 260.5 0.0 0.00 59.8 15.5 99.8 n/a
2024 05 15 10:00 258.3 0.0 0.00 61.0 16.1 99.5 n/a
2024 05 15 11:00 257.5 0.0 0.00 63.1 17.3 88.4 n/a
2024 05 15 12:00 257.9 0.0 0.00 64.0 17.8 81.4 n/a
2024 05 15 13:00 Wet 339.6 0.0 0.25 64.7 18.2 80.1 n/a
2024 05 15 14:00 256.7 0.0 0.00 67.8 19.9 74.64 n/a
2024 05 15 15:00 255.9 0.0 0.00 69.2 20.7 70.78 n/a
2024 05 15 16:00 255.9 0.0 0.00 70.1 21.2 66.82 n/a
2024 05 15 17:00 256.2 0.0 0.00 70.3 21.3 67.04 n/a
2024 05 15 18:00 256.9 0.0 0.00 69.9 21.0 69.38 n/a
2024 05 15 19:00 257.8 0.0 0.00 69.0 20.6 73.99 n/a
2024 05 15 20:00 258.4 0.0 0.00 68.0 20.0 77.35 n/a
2024 05 15 21:00 259.6 0.0 0.00 67.1 19.5 80.8 n/a
2024 05 15 22:00 259.8 0.0 0.00 66.5 19.1 82 n/a
2024 05 15 23:00 Wet 406.1 0.0 0.25 65.9 18.9 85.1 n/a
2024 05 15 24:00 Wet 332.8 0.0 0.00 64.6 18.1 88.2 n/a
2024 05 16 1:00 Wet 334.1 0.0 0.25 64.0 17.8 88.3 n/a
2024 05 16 2:00 Wet 488.8 0.0 1.02 63.4 17.4 90.9 n/a
2024 05 16 3:00 Wet 510.4 0.1 2.54 63.1 17.3 96.8 n/a
2024 05 16 4:00 Wet 517.3 0.1 1.78 62.7 17.1 98 n/a
2024 05 16 5:00 Wet 450.8 0.0 0.51 62.3 16.8 98.9 n/a
2024 05 16 6:00 Wet 456.7 0.0 0.51 62.1 16.7 99.4 n/a
2024 05 16 7:00 Wet 507.0 0.0 1.02 62.2 16.8 99.8 n/a
2024 05 16 8:00 Wet 496.0 0.0 1.02 62.5 17.0 99.8 n/a
2024 05 16 9:00 Wet 459.3 0.0 0.76 62.5 16.9 98.6 n/a
2024 05 16 10:00 283.9 0.0 0.00 63.4 17.4 90.9 n/a
2024 05 16 11:00 257.1 0.0 0.00 65.9 18.8 85 n/a
2024 05 16 12:00 256.0 0.0 0.00 68.7 20.4 76.71 n/a
2024 05 16 13:00 255.9 0.0 0.00 70.2 21.2 70.84 n/a
2024 05 16 14:00 255.5 0.0 0.00 71.6 22.0 66.21 n/a
2024 05 16 15:00 255.5 0.0 0.00 72.7 22.6 63.16 n/a
2024 05 16 16:00 256.2 0.0 0.00 72.0 22.2 66.61 n/a
2024 05 16 17:00 256.1 0.0 0.00 72.2 22.4 64.84 n/a
2024 05 16 18:00 256.4 0.0 0.00 72.4 22.4 64.69 n/a
2024 05 16 19:00 256.3 0.0 0.00 72.5 22.5 62.91 n/a
2024 05 16 20:00 258.6 0.0 0.00 69.0 20.6 71.28 n/a
2024 05 16 21:00 267.2 0.0 0.00 66.2 19.0 81 n/a
2024 05 16 22:00 Wet 286.4 0.0 0.00 64.8 18.2 86.2 n/a
2024 05 16 23:00 Wet 324.3 0.0 0.00 64.1 17.9 88.9 n/a
2024 05 16 24:00 Wet 453.2 0.0 0.00 62.6 17.0 93.8 n/a
2024 05 17 1:00 Wet 573.6 0.0 0.00 61.8 16.6 97.9 n/a
2024 05 17 2:00 Wet 609.2 0.0 0.00 61.0 16.1 98.4 n/a
2024 05 17 3:00 Wet 609.4 0.0 0.00 60.5 15.8 99 n/a
2024 05 17 4:00 Wet 576.8 0.0 0.00 59.9 15.5 99.2 n/a
2024 05 17 5:00 Wet 547.8 0.0 0.00 59.3 15.2 99.5 n/a
2024 05 17 6:00 Wet 520.6 0.0 0.00 58.9 14.9 99.7 n/a
2024 05 17 7:00 Wet 361.1 0.0 0.00 61.6 16.4 99.6 n/a
2024 05 17 8:00 255.8 0.0 0.00 65.4 18.6 89.8 n/a
2024 05 17 9:00 254.0 0.0 0.00 69.5 20.8 77.11 n/a
2024 05 17 10:00 253.8 0.0 0.00 71.9 22.2 70.79 n/a
2024 05 17 11:00 254.3 0.0 0.00 72.8 22.7 67.05 n/a
2024 05 17 12:00 253.4 0.0 0.00 75.1 24.0 59.31 n/a
2024 05 17 13:00 253.8 0.0 0.00 76.0 24.4 57.43 n/a
2024 05 17 14:00 254.5 0.0 0.00 76.0 24.4 57.23 n/a
2024 05 17 15:00 254.6 0.0 0.00 77.5 25.3 54.95 n/a
2024 05 17 16:00 254.7 0.0 0.00 78.0 25.5 51.39 n/a
2024 05 17 17:00 254.5 0.0 0.00 78.1 25.6 51.86 n/a
2024 05 17 18:00 254.9 0.0 0.00 77.1 25.1 52.96 n/a
2024 05 17 19:00 255.1 0.0 0.00 76.2 24.5 55.57 n/a
2024 05 17 20:00 256.3 0.0 0.00 73.7 23.1 59.78 n/a
2024 05 17 21:00 257.5 0.0 0.00 71.2 21.8 66.87 n/a
2024 05 17 22:00 258.7 0.0 0.00 68.7 20.4 74.37 n/a
2024 05 17 23:00 261.7 0.0 0.00 67.4 19.7 77.48 n/a
2024 05 17 24:00 269.7 0.0 0.00 65.7 18.7 81.3 n/a
2024 05 18 1:00 267.2 0.0 0.00 65.1 18.4 82.5 n/a
2024 05 18 2:00 266.3 0.0 0.00 64.5 18.0 83.5 n/a
2024 05 18 3:00 265.6 0.0 0.00 63.6 17.5 85.1 n/a
2024 05 18 4:00 Wet 297.9 0.0 0.00 62.7 17.1 87.1 n/a
2024 05 18 5:00 Wet 350.4 0.0 0.00 62.1 16.7 89 n/a
2024 05 18 6:00 Wet 408.7 0.0 0.00 61.5 16.4 94.4 n/a
2024 05 18 7:00 277.2 0.0 0.00 63.8 17.7 88.4 n/a
2024 05 18 8:00 256.2 0.0 0.00 67.4 19.6 82.7 n/a
2024 05 18 9:00 254.6 0.0 0.00 71.0 21.7 76.17 n/a
2024 05 18 10:00 253.9 0.0 0.00 74.8 23.8 65.95 n/a
2024 05 18 11:00 253.4 0.0 0.00 77.6 25.3 57.25 n/a
2024 05 18 12:00 253.3 0.0 0.00 79.1 26.2 53.89 n/a
2024 05 18 13:00 253.3 0.0 0.00 80.6 27.0 50.22 n/a
2024 05 18 14:00 253.5 0.0 0.00 81.8 27.7 48.23 n/a
2024 05 18 15:00 254.3 0.0 0.00 82.3 28.0 49.76 n/a
2024 05 18 16:00 254.5 0.0 0.00 82.9 28.3 47.98 n/a
2024 05 18 17:00 254.0 0.0 0.00 82.9 28.3 47.19 n/a
2024 05 18 18:00 254.2 0.0 0.00 82.4 28.0 48.47 n/a
2024 05 18 19:00 254.7 0.0 0.00 80.9 27.2 53.51 n/a
2024 05 18 20:00 256.2 0.0 0.00 77.5 25.3 59.76 n/a
2024 05 18 21:00 256.6 0.0 0.00 75.1 23.9 64.17 n/a
2024 05 18 22:00 257.4 0.0 0.00 73.2 22.9 69.1 n/a
2024 05 18 23:00 259.4 0.0 0.00 71.2 21.8 73.88 n/a
2024 05 18 24:00 259.2 0.0 0.00 70.4 21.4 75.86 n/a
2024 05 19 1:00 259.7 0.0 0.00 69.3 20.8 78.33 n/a
2024 05 19 2:00 260.3 0.0 0.00 68.5 20.3 80.3 n/a
2024 05 19 3:00 265.9 0.0 0.00 67.4 19.7 82.8 n/a
2024 05 19 4:00 271.3 0.0 0.00 66.6 19.2 84.8 n/a
2024 05 19 5:00 Wet 299.5 0.0 0.00 65.3 18.5 88.2 n/a
2024 05 19 6:00 Wet 310.2 0.0 0.00 65.2 18.4 89.4 n/a
2024 05 19 7:00 260.5 0.0 0.00 68.1 20.0 85.8 n/a
CST mV in mm F C % mph
Year Month Day Hour Leaf Wetness Total
Precipitation
Avg. Temp Avg. Rel.
Humidity
Wind
Speed

Back to the top of the page